sensor_id;sensor_type;location;lat;lon;timestamp;P1;durP1;ratioP1;P2;durP2;ratioP2
70547;SDS011;58099;43.406;3.698;2023-06-22T00:00:27;28.20;;;9.87;;
70547;SDS011;58099;43.406;3.698;2023-06-22T00:02:53;22.20;;;8.07;;
70547;SDS011;58099;43.406;3.698;2023-06-22T00:05:18;24.00;;;8.37;;
70547;SDS011;58099;43.406;3.698;2023-06-22T00:07:44;21.40;;;9.03;;
70547;SDS011;58099;43.406;3.698;2023-06-22T00:10:10;23.63;;;9.05;;
70547;SDS011;58099;43.406;3.698;2023-06-22T00:12:35;24.67;;;8.73;;
70547;SDS011;58099;43.406;3.698;2023-06-22T00:15:01;22.42;;;8.52;;
70547;SDS011;58099;43.406;3.698;2023-06-22T00:17:27;23.73;;;8.80;;
70547;SDS011;58099;43.406;3.698;2023-06-22T00:19:53;25.70;;;9.50;;
70547;SDS011;58099;43.406;3.698;2023-06-22T00:22:20;21.75;;;8.80;;
70547;SDS011;58099;43.406;3.698;2023-06-22T00:24:53;21.90;;;8.40;;
70547;SDS011;58099;43.406;3.698;2023-06-22T00:27:20;25.20;;;8.23;;
70547;SDS011;58099;43.406;3.698;2023-06-22T00:29:46;21.27;;;7.53;;
70547;SDS011;58099;43.406;3.698;2023-06-22T00:32:12;25.25;;;8.57;;
70547;SDS011;58099;43.406;3.698;2023-06-22T00:34:37;22.67;;;8.70;;
70547;SDS011;58099;43.406;3.698;2023-06-22T00:37:03;24.10;;;8.55;;
70547;SDS011;58099;43.406;3.698;2023-06-22T00:39:29;21.23;;;8.27;;
70547;SDS011;58099;43.406;3.698;2023-06-22T00:41:55;20.75;;;9.02;;
70547;SDS011;58099;43.406;3.698;2023-06-22T00:44:20;20.67;;;8.33;;
70547;SDS011;58099;43.406;3.698;2023-06-22T00:46:46;23.48;;;8.10;;
70547;SDS011;58099;43.406;3.698;2023-06-22T00:49:12;29.93;;;8.20;;
70547;SDS011;58099;43.406;3.698;2023-06-22T00:51:38;29.90;;;9.30;;
70547;SDS011;58099;43.406;3.698;2023-06-22T00:54:04;28.60;;;9.63;;
70547;SDS011;58099;43.406;3.698;2023-06-22T00:56:31;25.25;;;9.52;;
70547;SDS011;58099;43.406;3.698;2023-06-22T00:58:58;22.53;;;9.27;;
70547;SDS011;58099;43.406;3.698;2023-06-22T01:01:24;23.77;;;9.18;;
70547;SDS011;58099;43.406;3.698;2023-06-22T01:03:50;28.33;;;10.05;;
70547;SDS011;58099;43.406;3.698;2023-06-22T01:06:19;19.10;;;7.22;;
70547;SDS011;58099;43.406;3.698;2023-06-22T01:08:53;24.00;;;8.60;;
70547;SDS011;58099;43.406;3.698;2023-06-22T01:11:37;23.05;;;8.00;;
70547;SDS011;58099;43.406;3.698;2023-06-22T01:14:21;25.80;;;9.63;;
70547;SDS011;58099;43.406;3.698;2023-06-22T01:16:52;27.65;;;9.45;;
70547;SDS011;58099;43.406;3.698;2023-06-22T01:21:59;21.03;;;8.30;;
70547;SDS011;58099;43.406;3.698;2023-06-22T01:24:32;27.50;;;8.95;;
70547;SDS011;58099;43.406;3.698;2023-06-22T01:29:55;27.00;;;8.75;;
70547;SDS011;58099;43.406;3.698;2023-06-22T01:32:30;28.40;;;9.38;;
70547;SDS011;58099;43.406;3.698;2023-06-22T01:35:01;24.77;;;9.53;;
70547;SDS011;58099;43.406;3.698;2023-06-22T01:37:29;25.15;;;9.13;;
70547;SDS011;58099;43.406;3.698;2023-06-22T01:39:57;28.77;;;9.82;;
70547;SDS011;58099;43.406;3.698;2023-06-22T01:42:24;30.08;;;8.93;;
70547;SDS011;58099;43.406;3.698;2023-06-22T01:44:50;24.85;;;8.20;;
70547;SDS011;58099;43.406;3.698;2023-06-22T01:47:18;27.17;;;9.33;;
70547;SDS011;58099;43.406;3.698;2023-06-22T01:49:45;23.27;;;9.13;;
70547;SDS011;58099;43.406;3.698;2023-06-22T01:52:11;27.70;;;10.13;;
70547;SDS011;58099;43.406;3.698;2023-06-22T01:54:37;24.27;;;9.20;;
70547;SDS011;58099;43.406;3.698;2023-06-22T01:57:04;29.47;;;9.87;;
70547;SDS011;58099;43.406;3.698;2023-06-22T01:59:34;30.52;;;9.90;;
70547;SDS011;58099;43.406;3.698;2023-06-22T02:02:20;36.30;;;10.23;;
70547;SDS011;58099;43.406;3.698;2023-06-22T02:05:10;31.97;;;9.87;;
70547;SDS011;58099;43.406;3.698;2023-06-22T02:07:47;27.50;;;10.10;;
70547;SDS011;58099;43.406;3.698;2023-06-22T02:10:18;30.17;;;11.02;;
70547;SDS011;58099;43.406;3.698;2023-06-22T02:12:46;27.70;;;9.95;;
70547;SDS011;58099;43.406;3.698;2023-06-22T02:15:13;26.67;;;9.40;;
70547;SDS011;58099;43.406;3.698;2023-06-22T02:17:39;26.80;;;9.87;;
70547;SDS011;58099;43.406;3.698;2023-06-22T02:20:11;29.85;;;10.35;;
70547;SDS011;58099;43.406;3.698;2023-06-22T02:22:38;27.05;;;10.65;;
70547;SDS011;58099;43.406;3.698;2023-06-22T02:25:04;30.67;;;9.63;;
70547;SDS011;58099;43.406;3.698;2023-06-22T02:27:29;21.43;;;9.10;;
70547;SDS011;58099;43.406;3.698;2023-06-22T02:29:55;31.13;;;9.18;;
70547;SDS011;58099;43.406;3.698;2023-06-22T02:32:21;25.40;;;9.47;;
70547;SDS011;58099;43.406;3.698;2023-06-22T02:34:47;25.08;;;9.93;;
70547;SDS011;58099;43.406;3.698;2023-06-22T02:37:15;31.23;;;9.07;;
70547;SDS011;58099;43.406;3.698;2023-06-22T02:39:41;27.25;;;9.75;;
70547;SDS011;58099;43.406;3.698;2023-06-22T02:42:07;29.65;;;9.63;;
70547;SDS011;58099;43.406;3.698;2023-06-22T02:44:33;29.90;;;9.77;;
70547;SDS011;58099;43.406;3.698;2023-06-22T02:46:59;25.20;;;9.50;;
70547;SDS011;58099;43.406;3.698;2023-06-22T02:49:24;27.43;;;9.50;;
70547;SDS011;58099;43.406;3.698;2023-06-22T02:51:50;24.90;;;9.88;;
70547;SDS011;58099;43.406;3.698;2023-06-22T02:54:16;30.10;;;10.02;;
70547;SDS011;58099;43.406;3.698;2023-06-22T02:56:42;32.45;;;10.63;;
70547;SDS011;58099;43.406;3.698;2023-06-22T02:59:09;22.02;;;10.05;;
70547;SDS011;58099;43.406;3.698;2023-06-22T03:01:35;26.55;;;10.23;;
70547;SDS011;58099;43.406;3.698;2023-06-22T03:04:08;31.47;;;11.03;;
70547;SDS011;58099;43.406;3.698;2023-06-22T03:06:35;26.88;;;9.52;;
70547;SDS011;58099;43.406;3.698;2023-06-22T03:09:04;30.25;;;10.35;;
70547;SDS011;58099;43.406;3.698;2023-06-22T03:11:33;28.60;;;9.43;;
70547;SDS011;58099;43.406;3.698;2023-06-22T03:14:01;29.30;;;9.32;;
70547;SDS011;58099;43.406;3.698;2023-06-22T03:16:27;26.63;;;10.43;;
70547;SDS011;58099;43.406;3.698;2023-06-22T03:18:54;25.88;;;9.57;;
70547;SDS011;58099;43.406;3.698;2023-06-22T03:21:21;24.25;;;10.15;;
70547;SDS011;58099;43.406;3.698;2023-06-22T03:23:47;29.73;;;10.63;;
70547;SDS011;58099;43.406;3.698;2023-06-22T03:26:16;29.10;;;9.98;;
70547;SDS011;58099;43.406;3.698;2023-06-22T03:28:42;24.70;;;9.52;;
70547;SDS011;58099;43.406;3.698;2023-06-22T03:31:08;28.43;;;9.57;;
70547;SDS011;58099;43.406;3.698;2023-06-22T03:33:33;29.98;;;9.45;;
70547;SDS011;58099;43.406;3.698;2023-06-22T03:35:59;24.13;;;9.77;;
70547;SDS011;58099;43.406;3.698;2023-06-22T03:38:25;25.02;;;9.73;;
70547;SDS011;58099;43.406;3.698;2023-06-22T03:40:50;26.93;;;8.83;;
70547;SDS011;58099;43.406;3.698;2023-06-22T03:43:16;28.45;;;10.00;;
70547;SDS011;58099;43.406;3.698;2023-06-22T03:45:41;24.67;;;9.87;;
70547;SDS011;58099;43.406;3.698;2023-06-22T03:48:10;22.63;;;9.25;;
70547;SDS011;58099;43.406;3.698;2023-06-22T03:50:36;25.23;;;10.18;;
70547;SDS011;58099;43.406;3.698;2023-06-22T03:53:02;27.17;;;9.50;;
70547;SDS011;58099;43.406;3.698;2023-06-22T03:55:28;25.95;;;9.25;;
70547;SDS011;58099;43.406;3.698;2023-06-22T03:57:53;26.80;;;9.63;;
70547;SDS011;58099;43.406;3.698;2023-06-22T04:00:22;26.10;;;8.60;;
70547;SDS011;58099;43.406;3.698;2023-06-22T04:02:50;22.77;;;9.13;;
70547;SDS011;58099;43.406;3.698;2023-06-22T04:05:16;26.40;;;8.20;;
70547;SDS011;58099;43.406;3.698;2023-06-22T04:07:45;24.08;;;8.98;;
70547;SDS011;58099;43.406;3.698;2023-06-22T04:10:10;23.45;;;8.57;;
70547;SDS011;58099;43.406;3.698;2023-06-22T04:12:36;23.63;;;9.70;;
70547;SDS011;58099;43.406;3.698;2023-06-22T04:15:02;26.10;;;9.27;;
70547;SDS011;58099;43.406;3.698;2023-06-22T04:17:28;20.50;;;8.93;;
70547;SDS011;58099;43.406;3.698;2023-06-22T04:19:53;26.25;;;9.25;;
70547;SDS011;58099;43.406;3.698;2023-06-22T04:22:19;25.03;;;9.10;;
70547;SDS011;58099;43.406;3.698;2023-06-22T04:24:44;24.95;;;9.20;;
70547;SDS011;58099;43.406;3.698;2023-06-22T04:27:10;22.53;;;8.53;;
70547;SDS011;58099;43.406;3.698;2023-06-22T04:29:36;22.73;;;8.65;;
70547;SDS011;58099;43.406;3.698;2023-06-22T04:32:03;22.77;;;9.15;;
70547;SDS011;58099;43.406;3.698;2023-06-22T04:34:31;22.40;;;8.50;;
70547;SDS011;58099;43.406;3.698;2023-06-22T04:36:56;23.48;;;8.80;;
70547;SDS011;58099;43.406;3.698;2023-06-22T04:39:22;19.03;;;8.40;;
70547;SDS011;58099;43.406;3.698;2023-06-22T04:41:49;19.50;;;8.68;;
70547;SDS011;58099;43.406;3.698;2023-06-22T04:44:16;26.60;;;8.77;;
70547;SDS011;58099;43.406;3.698;2023-06-22T04:46:50;22.02;;;9.30;;
70547;SDS011;58099;43.406;3.698;2023-06-22T04:49:22;26.33;;;8.27;;
70547;SDS011;58099;43.406;3.698;2023-06-22T04:51:57;23.80;;;8.57;;
70547;SDS011;58099;43.406;3.698;2023-06-22T04:54:24;26.38;;;9.02;;
70547;SDS011;58099;43.406;3.698;2023-06-22T04:56:50;25.77;;;8.70;;
70547;SDS011;58099;43.406;3.698;2023-06-22T04:59:21;24.93;;;8.97;;
70547;SDS011;58099;43.406;3.698;2023-06-22T05:01:48;23.25;;;8.75;;
70547;SDS011;58099;43.406;3.698;2023-06-22T05:04:13;24.65;;;8.48;;
70547;SDS011;58099;43.406;3.698;2023-06-22T05:06:42;22.37;;;8.60;;
70547;SDS011;58099;43.406;3.698;2023-06-22T05:09:07;23.70;;;8.80;;
70547;SDS011;58099;43.406;3.698;2023-06-22T05:11:33;21.75;;;8.35;;
70547;SDS011;58099;43.406;3.698;2023-06-22T05:13:59;22.45;;;8.95;;
70547;SDS011;58099;43.406;3.698;2023-06-22T05:16:24;23.57;;;8.87;;
70547;SDS011;58099;43.406;3.698;2023-06-22T05:18:53;23.83;;;9.13;;
70547;SDS011;58099;43.406;3.698;2023-06-22T05:21:23;20.50;;;9.25;;
70547;SDS011;58099;43.406;3.698;2023-06-22T05:23:50;26.43;;;8.60;;
70547;SDS011;58099;43.406;3.698;2023-06-22T05:26:17;24.17;;;8.77;;
70547;SDS011;58099;43.406;3.698;2023-06-22T05:28:43;25.02;;;8.43;;
70547;SDS011;58099;43.406;3.698;2023-06-22T05:31:16;24.73;;;8.98;;
70547;SDS011;58099;43.406;3.698;2023-06-22T05:33:44;25.55;;;8.77;;
70547;SDS011;58099;43.406;3.698;2023-06-22T05:36:11;22.47;;;9.17;;
70547;SDS011;58099;43.406;3.698;2023-06-22T05:38:37;24.75;;;9.63;;
70547;SDS011;58099;43.406;3.698;2023-06-22T05:41:04;24.45;;;9.18;;
70547;SDS011;58099;43.406;3.698;2023-06-22T05:43:30;21.95;;;8.57;;
70547;SDS011;58099;43.406;3.698;2023-06-22T05:45:56;23.40;;;8.23;;
70547;SDS011;58099;43.406;3.698;2023-06-22T05:48:21;20.67;;;8.13;;
70547;SDS011;58099;43.406;3.698;2023-06-22T05:50:47;23.60;;;9.10;;
70547;SDS011;58099;43.406;3.698;2023-06-22T05:53:13;27.15;;;9.32;;
70547;SDS011;58099;43.406;3.698;2023-06-22T05:55:39;27.27;;;8.77;;
70547;SDS011;58099;43.406;3.698;2023-06-22T05:58:05;23.50;;;9.18;;
70547;SDS011;58099;43.406;3.698;2023-06-22T06:00:31;27.13;;;9.82;;
70547;SDS011;58099;43.406;3.698;2023-06-22T06:02:57;22.53;;;9.50;;
70547;SDS011;58099;43.406;3.698;2023-06-22T06:05:29;21.80;;;9.05;;
70547;SDS011;58099;43.406;3.698;2023-06-22T06:07:55;25.40;;;9.65;;
70547;SDS011;58099;43.406;3.698;2023-06-22T06:10:21;25.50;;;8.98;;
70547;SDS011;58099;43.406;3.698;2023-06-22T06:12:47;27.03;;;8.70;;
70547;SDS011;58099;43.406;3.698;2023-06-22T06:15:12;25.45;;;8.82;;
70547;SDS011;58099;43.406;3.698;2023-06-22T06:17:45;26.37;;;9.47;;
70547;SDS011;58099;43.406;3.698;2023-06-22T06:20:14;26.65;;;9.52;;
70547;SDS011;58099;43.406;3.698;2023-06-22T06:22:41;21.02;;;8.45;;
70547;SDS011;58099;43.406;3.698;2023-06-22T06:25:08;23.67;;;8.48;;
70547;SDS011;58099;43.406;3.698;2023-06-22T06:27:33;23.83;;;8.63;;
70547;SDS011;58099;43.406;3.698;2023-06-22T06:29:59;21.92;;;8.90;;
70547;SDS011;58099;43.406;3.698;2023-06-22T06:32:25;26.70;;;9.27;;
70547;SDS011;58099;43.406;3.698;2023-06-22T06:34:50;21.65;;;8.73;;
70547;SDS011;58099;43.406;3.698;2023-06-22T06:37:16;24.33;;;9.13;;
70547;SDS011;58099;43.406;3.698;2023-06-22T06:39:43;22.35;;;9.15;;
70547;SDS011;58099;43.406;3.698;2023-06-22T06:42:09;20.20;;;8.82;;
70547;SDS011;58099;43.406;3.698;2023-06-22T06:44:36;24.17;;;8.07;;
70547;SDS011;58099;43.406;3.698;2023-06-22T06:47:03;26.00;;;8.88;;
70547;SDS011;58099;43.406;3.698;2023-06-22T06:49:29;21.43;;;8.30;;
70547;SDS011;58099;43.406;3.698;2023-06-22T06:51:55;24.95;;;8.10;;
70547;SDS011;58099;43.406;3.698;2023-06-22T06:54:21;22.55;;;8.35;;
70547;SDS011;58099;43.406;3.698;2023-06-22T06:56:47;21.27;;;8.57;;
70547;SDS011;58099;43.406;3.698;2023-06-22T06:59:13;31.60;;;9.93;;
70547;SDS011;58099;43.406;3.698;2023-06-22T07:01:40;26.02;;;9.52;;
70547;SDS011;58099;43.406;3.698;2023-06-22T07:04:06;22.17;;;8.05;;
70547;SDS011;58099;43.406;3.698;2023-06-22T07:06:32;21.73;;;9.03;;
70547;SDS011;58099;43.406;3.698;2023-06-22T07:08:59;25.15;;;8.50;;
70547;SDS011;58099;43.406;3.698;2023-06-22T07:11:25;19.50;;;8.57;;
70547;SDS011;58099;43.406;3.698;2023-06-22T07:13:51;26.52;;;9.40;;
70547;SDS011;58099;43.406;3.698;2023-06-22T07:16:17;23.83;;;8.53;;
70547;SDS011;58099;43.406;3.698;2023-06-22T07:18:43;28.95;;;8.90;;
70547;SDS011;58099;43.406;3.698;2023-06-22T07:21:09;23.27;;;8.63;;
70547;SDS011;58099;43.406;3.698;2023-06-22T07:23:34;24.40;;;9.50;;
70547;SDS011;58099;43.406;3.698;2023-06-22T07:26:00;23.17;;;9.00;;
70547;SDS011;58099;43.406;3.698;2023-06-22T07:28:31;23.95;;;10.13;;
70547;SDS011;58099;43.406;3.698;2023-06-22T07:31:02;31.60;;;9.57;;
70547;SDS011;58099;43.406;3.698;2023-06-22T07:33:29;30.23;;;9.63;;
70547;SDS011;58099;43.406;3.698;2023-06-22T07:35:54;30.05;;;8.75;;
70547;SDS011;58099;43.406;3.698;2023-06-22T07:38:20;22.93;;;7.93;;
70547;SDS011;58099;43.406;3.698;2023-06-22T07:40:47;26.52;;;9.25;;
70547;SDS011;58099;43.406;3.698;2023-06-22T07:43:12;28.80;;;9.00;;
70547;SDS011;58099;43.406;3.698;2023-06-22T07:45:38;25.87;;;8.23;;
70547;SDS011;58099;43.406;3.698;2023-06-22T07:48:05;30.67;;;9.35;;
70547;SDS011;58099;43.406;3.698;2023-06-22T07:50:32;30.95;;;8.60;;
70547;SDS011;58099;43.406;3.698;2023-06-22T07:52:58;27.00;;;10.43;;
70547;SDS011;58099;43.406;3.698;2023-06-22T07:55:23;25.92;;;8.15;;
70547;SDS011;58099;43.406;3.698;2023-06-22T07:57:49;28.17;;;10.07;;
70547;SDS011;58099;43.406;3.698;2023-06-22T08:00:17;30.35;;;9.13;;
70547;SDS011;58099;43.406;3.698;2023-06-22T08:02:43;32.42;;;9.55;;
70547;SDS011;58099;43.406;3.698;2023-06-22T08:05:10;34.25;;;9.13;;
70547;SDS011;58099;43.406;3.698;2023-06-22T08:07:37;23.63;;;8.73;;
70547;SDS011;58099;43.406;3.698;2023-06-22T08:10:06;23.73;;;8.70;;
70547;SDS011;58099;43.406;3.698;2023-06-22T08:12:35;27.98;;;10.18;;
70547;SDS011;58099;43.406;3.698;2023-06-22T08:15:00;24.40;;;9.30;;
70547;SDS011;58099;43.406;3.698;2023-06-22T08:17:26;28.20;;;9.38;;
70547;SDS011;58099;43.406;3.698;2023-06-22T08:19:52;32.70;;;9.60;;
70547;SDS011;58099;43.406;3.698;2023-06-22T08:22:17;30.50;;;9.45;;
70547;SDS011;58099;43.406;3.698;2023-06-22T08:24:43;28.50;;;9.67;;
70547;SDS011;58099;43.406;3.698;2023-06-22T08:27:09;34.40;;;10.27;;
70547;SDS011;58099;43.406;3.698;2023-06-22T08:29:39;27.80;;;9.55;;
70547;SDS011;58099;43.406;3.698;2023-06-22T08:32:08;29.40;;;10.03;;
70547;SDS011;58099;43.406;3.698;2023-06-22T08:34:34;27.80;;;10.63;;
70547;SDS011;58099;43.406;3.698;2023-06-22T08:37:01;28.75;;;10.18;;
70547;SDS011;58099;43.406;3.698;2023-06-22T08:39:31;29.77;;;10.30;;
70547;SDS011;58099;43.406;3.698;2023-06-22T08:41:57;29.95;;;10.05;;
70547;SDS011;58099;43.406;3.698;2023-06-22T08:44:23;26.60;;;10.00;;
70547;SDS011;58099;43.406;3.698;2023-06-22T08:46:48;27.13;;;9.95;;
70547;SDS011;58099;43.406;3.698;2023-06-22T08:49:14;26.90;;;9.53;;
70547;SDS011;58099;43.406;3.698;2023-06-22T08:51:40;29.42;;;9.32;;
70547;SDS011;58099;43.406;3.698;2023-06-22T08:54:06;27.60;;;9.40;;
70547;SDS011;58099;43.406;3.698;2023-06-22T08:56:31;26.85;;;9.63;;
70547;SDS011;58099;43.406;3.698;2023-06-22T08:58:57;26.52;;;9.25;;
70547;SDS011;58099;43.406;3.698;2023-06-22T09:01:23;29.15;;;10.18;;
70547;SDS011;58099;43.406;3.698;2023-06-22T09:03:49;29.27;;;10.00;;
70547;SDS011;58099;43.406;3.698;2023-06-22T09:06:19;30.00;;;9.57;;
70547;SDS011;58099;43.406;3.698;2023-06-22T09:08:46;30.38;;;10.65;;
70547;SDS011;58099;43.406;3.698;2023-06-22T09:11:12;27.27;;;9.88;;
70547;SDS011;58099;43.406;3.698;2023-06-22T09:13:38;29.33;;;10.93;;
70547;SDS011;58099;43.406;3.698;2023-06-22T09:16:04;29.38;;;10.50;;
70547;SDS011;58099;43.406;3.698;2023-06-22T09:18:29;32.78;;;10.50;;
70547;SDS011;58099;43.406;3.698;2023-06-22T09:20:55;26.57;;;9.63;;
70547;SDS011;58099;43.406;3.698;2023-06-22T09:23:21;27.88;;;10.45;;
70547;SDS011;58099;43.406;3.698;2023-06-22T09:25:47;30.10;;;9.77;;
70547;SDS011;58099;43.406;3.698;2023-06-22T09:28:13;21.50;;;10.23;;
70547;SDS011;58099;43.406;3.698;2023-06-22T09:30:39;25.02;;;10.52;;
70547;SDS011;58099;43.406;3.698;2023-06-22T09:33:05;22.87;;;8.90;;
70547;SDS011;58099;43.406;3.698;2023-06-22T09:35:31;23.15;;;10.18;;
70547;SDS011;58099;43.406;3.698;2023-06-22T09:37:57;23.10;;;9.33;;
70547;SDS011;58099;43.406;3.698;2023-06-22T09:40:22;22.40;;;9.15;;
70547;SDS011;58099;43.406;3.698;2023-06-22T09:42:48;21.07;;;8.63;;
70547;SDS011;58099;43.406;3.698;2023-06-22T09:45:14;20.70;;;8.93;;
70547;SDS011;58099;43.406;3.698;2023-06-22T09:47:39;19.17;;;8.67;;
70547;SDS011;58099;43.406;3.698;2023-06-22T09:50:05;21.65;;;8.35;;
70547;SDS011;58099;43.406;3.698;2023-06-22T09:52:32;20.17;;;8.03;;
70547;SDS011;58099;43.406;3.698;2023-06-22T09:54:57;20.73;;;8.52;;
70547;SDS011;58099;43.406;3.698;2023-06-22T09:57:23;23.65;;;8.27;;
70547;SDS011;58099;43.406;3.698;2023-06-22T09:59:49;18.85;;;8.52;;
70547;SDS011;58099;43.406;3.698;2023-06-22T10:02:14;20.20;;;8.70;;
70547;SDS011;58099;43.406;3.698;2023-06-22T10:04:40;19.80;;;8.27;;
70547;SDS011;58099;43.406;3.698;2023-06-22T10:07:05;18.77;;;9.13;;
70547;SDS011;58099;43.406;3.698;2023-06-22T10:09:31;20.90;;;9.25;;
70547;SDS011;58099;43.406;3.698;2023-06-22T10:11:57;20.27;;;9.23;;
70547;SDS011;58099;43.406;3.698;2023-06-22T10:14:23;19.33;;;9.30;;
70547;SDS011;58099;43.406;3.698;2023-06-22T10:16:50;22.03;;;9.80;;
70547;SDS011;58099;43.406;3.698;2023-06-22T10:19:17;21.38;;;9.35;;
70547;SDS011;58099;43.406;3.698;2023-06-22T10:21:43;21.23;;;10.30;;
70547;SDS011;58099;43.406;3.698;2023-06-22T10:24:09;26.77;;;11.57;;
70547;SDS011;58099;43.406;3.698;2023-06-22T10:26:35;22.27;;;10.55;;
70547;SDS011;58099;43.406;3.698;2023-06-22T10:29:02;23.92;;;11.27;;
70547;SDS011;58099;43.406;3.698;2023-06-22T10:31:27;27.07;;;11.77;;
70547;SDS011;58099;43.406;3.698;2023-06-22T10:33:54;20.83;;;10.95;;
70547;SDS011;58099;43.406;3.698;2023-06-22T10:36:21;19.83;;;10.25;;
70547;SDS011;58099;43.406;3.698;2023-06-22T10:38:47;25.65;;;11.35;;
70547;SDS011;58099;43.406;3.698;2023-06-22T10:41:13;22.33;;;11.10;;
70547;SDS011;58099;43.406;3.698;2023-06-22T10:43:39;23.43;;;11.60;;
70547;SDS011;58099;43.406;3.698;2023-06-22T10:46:06;24.23;;;11.10;;
70547;SDS011;58099;43.406;3.698;2023-06-22T10:48:32;23.77;;;11.60;;
70547;SDS011;58099;43.406;3.698;2023-06-22T10:50:58;22.33;;;11.32;;
70547;SDS011;58099;43.406;3.698;2023-06-22T10:53:23;24.30;;;11.05;;
70547;SDS011;58099;43.406;3.698;2023-06-22T10:55:49;20.43;;;10.93;;
70547;SDS011;58099;43.406;3.698;2023-06-22T10:58:17;14.73;;;8.27;;
70547;SDS011;58099;43.406;3.698;2023-06-22T11:00:44;9.38;;;5.18;;
70547;SDS011;58099;43.406;3.698;2023-06-22T11:03:10;14.95;;;4.97;;
70547;SDS011;58099;43.406;3.698;2023-06-22T11:05:36;11.73;;;5.40;;
70547;SDS011;58099;43.406;3.698;2023-06-22T11:08:01;10.05;;;5.35;;
70547;SDS011;58099;43.406;3.698;2023-06-22T11:10:27;9.37;;;4.50;;
70547;SDS011;58099;43.406;3.698;2023-06-22T11:12:53;9.52;;;3.85;;
70547;SDS011;58099;43.406;3.698;2023-06-22T11:15:20;10.05;;;3.88;;
70547;SDS011;58099;43.406;3.698;2023-06-22T11:17:46;9.00;;;4.17;;
70547;SDS011;58099;43.406;3.698;2023-06-22T11:20:11;10.87;;;4.80;;
70547;SDS011;58099;43.406;3.698;2023-06-22T11:22:38;9.68;;;4.75;;
70547;SDS011;58099;43.406;3.698;2023-06-22T11:25:04;8.40;;;4.43;;
70547;SDS011;58099;43.406;3.698;2023-06-22T11:27:30;9.20;;;4.87;;
70547;SDS011;58099;43.406;3.698;2023-06-22T11:29:56;9.90;;;4.20;;
70547;SDS011;58099;43.406;3.698;2023-06-22T11:32:22;7.97;;;3.97;;
70547;SDS011;58099;43.406;3.698;2023-06-22T11:34:48;6.57;;;3.77;;
70547;SDS011;58099;43.406;3.698;2023-06-22T11:37:14;7.78;;;3.80;;
70547;SDS011;58099;43.406;3.698;2023-06-22T11:39:40;7.00;;;3.20;;
70547;SDS011;58099;43.406;3.698;2023-06-22T11:42:06;7.40;;;3.50;;
70547;SDS011;58099;43.406;3.698;2023-06-22T11:44:32;6.83;;;3.50;;
70547;SDS011;58099;43.406;3.698;2023-06-22T11:46:58;8.90;;;3.30;;
70547;SDS011;58099;43.406;3.698;2023-06-22T11:49:25;6.88;;;3.63;;
70547;SDS011;58099;43.406;3.698;2023-06-22T11:51:51;6.03;;;3.42;;
70547;SDS011;58099;43.406;3.698;2023-06-22T11:54:17;6.97;;;3.53;;
70547;SDS011;58099;43.406;3.698;2023-06-22T11:56:43;6.20;;;3.25;;
70547;SDS011;58099;43.406;3.698;2023-06-22T11:59:09;5.78;;;3.40;;
70547;SDS011;58099;43.406;3.698;2023-06-22T12:01:35;5.82;;;3.45;;
70547;SDS011;58099;43.406;3.698;2023-06-22T12:04:00;5.53;;;3.03;;
70547;SDS011;58099;43.406;3.698;2023-06-22T12:06:26;5.97;;;3.40;;
70547;SDS011;58099;43.406;3.698;2023-06-22T12:08:52;5.80;;;3.45;;
70547;SDS011;58099;43.406;3.698;2023-06-22T12:11:18;6.47;;;3.70;;
70547;SDS011;58099;43.406;3.698;2023-06-22T12:13:43;5.47;;;3.00;;
70547;SDS011;58099;43.406;3.698;2023-06-22T12:16:09;5.93;;;3.53;;
70547;SDS011;58099;43.406;3.698;2023-06-22T12:18:35;6.63;;;3.83;;
70547;SDS011;58099;43.406;3.698;2023-06-22T12:21:00;8.93;;;4.40;;
70547;SDS011;58099;43.406;3.698;2023-06-22T12:23:26;6.57;;;4.13;;
70547;SDS011;58099;43.406;3.698;2023-06-22T12:25:52;6.75;;;3.50;;
70547;SDS011;58099;43.406;3.698;2023-06-22T12:28:18;11.03;;;3.83;;
70547;SDS011;58099;43.406;3.698;2023-06-22T12:30:43;6.60;;;4.15;;
70547;SDS011;58099;43.406;3.698;2023-06-22T12:33:09;6.43;;;3.63;;
70547;SDS011;58099;43.406;3.698;2023-06-22T12:35:35;6.65;;;4.30;;
70547;SDS011;58099;43.406;3.698;2023-06-22T12:38:00;7.90;;;4.20;;
70547;SDS011;58099;43.406;3.698;2023-06-22T12:40:27;7.63;;;4.28;;
70547;SDS011;58099;43.406;3.698;2023-06-22T12:42:53;7.13;;;5.10;;
70547;SDS011;58099;43.406;3.698;2023-06-22T12:45:19;8.98;;;4.82;;
70547;SDS011;58099;43.406;3.698;2023-06-22T12:47:46;6.60;;;4.43;;
70547;SDS011;58099;43.406;3.698;2023-06-22T12:50:12;6.83;;;4.37;;
70547;SDS011;58099;43.406;3.698;2023-06-22T12:52:38;7.00;;;4.65;;
70547;SDS011;58099;43.406;3.698;2023-06-22T12:55:06;8.90;;;4.93;;
70547;SDS011;58099;43.406;3.698;2023-06-22T12:57:32;6.88;;;4.32;;
70547;SDS011;58099;43.406;3.698;2023-06-22T12:59:57;7.97;;;5.00;;
70547;SDS011;58099;43.406;3.698;2023-06-22T13:02:25;7.18;;;4.22;;
70547;SDS011;58099;43.406;3.698;2023-06-22T13:04:51;9.98;;;5.03;;
70547;SDS011;58099;43.406;3.698;2023-06-22T13:07:17;10.07;;;4.50;;
70547;SDS011;58099;43.406;3.698;2023-06-22T13:09:42;6.80;;;3.83;;
70547;SDS011;58099;43.406;3.698;2023-06-22T13:12:10;8.07;;;4.27;;
70547;SDS011;58099;43.406;3.698;2023-06-22T13:14:36;9.32;;;4.20;;
70547;SDS011;58099;43.406;3.698;2023-06-22T13:17:01;9.17;;;4.53;;
70547;SDS011;58099;43.406;3.698;2023-06-22T13:19:27;8.10;;;4.38;;
70547;SDS011;58099;43.406;3.698;2023-06-22T13:21:57;8.57;;;4.00;;
70547;SDS011;58099;43.406;3.698;2023-06-22T13:24:23;9.68;;;4.30;;
70547;SDS011;58099;43.406;3.698;2023-06-22T13:26:48;10.20;;;4.63;;
70547;SDS011;58099;43.406;3.698;2023-06-22T13:29:14;8.27;;;4.40;;
70547;SDS011;58099;43.406;3.698;2023-06-22T13:31:40;9.48;;;3.88;;
70547;SDS011;58099;43.406;3.698;2023-06-22T13:34:05;9.03;;;5.13;;
70547;SDS011;58099;43.406;3.698;2023-06-22T13:36:31;11.73;;;5.50;;
70547;SDS011;58099;43.406;3.698;2023-06-22T13:38:57;14.00;;;4.30;;
70547;SDS011;58099;43.406;3.698;2023-06-22T13:41:23;11.07;;;4.50;;
70547;SDS011;58099;43.406;3.698;2023-06-22T13:43:48;6.83;;;2.73;;
70547;SDS011;58099;43.406;3.698;2023-06-22T13:46:14;4.68;;;1.80;;
70547;SDS011;58099;43.406;3.698;2023-06-22T13:48:40;7.33;;;2.27;;
70547;SDS011;58099;43.406;3.698;2023-06-22T13:51:05;5.63;;;2.00;;
70547;SDS011;58099;43.406;3.698;2023-06-22T13:53:31;4.47;;;2.30;;
70547;SDS011;58099;43.406;3.698;2023-06-22T13:55:57;4.57;;;1.90;;
70547;SDS011;58099;43.406;3.698;2023-06-22T13:58:22;4.07;;;2.17;;
70547;SDS011;58099;43.406;3.698;2023-06-22T14:00:48;5.22;;;2.08;;
70547;SDS011;58099;43.406;3.698;2023-06-22T14:03:14;4.20;;;1.90;;
70547;SDS011;58099;43.406;3.698;2023-06-22T14:05:41;3.80;;;2.20;;
70547;SDS011;58099;43.406;3.698;2023-06-22T14:08:07;4.55;;;2.20;;
70547;SDS011;58099;43.406;3.698;2023-06-22T14:10:34;4.47;;;2.40;;
70547;SDS011;58099;43.406;3.698;2023-06-22T14:12:59;3.70;;;2.30;;
70547;SDS011;58099;43.406;3.698;2023-06-22T14:15:25;5.20;;;2.30;;
70547;SDS011;58099;43.406;3.698;2023-06-22T14:17:51;4.00;;;2.23;;
70547;SDS011;58099;43.406;3.698;2023-06-22T14:20:17;4.63;;;2.15;;
70547;SDS011;58099;43.406;3.698;2023-06-22T14:22:46;4.80;;;2.30;;
70547;SDS011;58099;43.406;3.698;2023-06-22T14:25:12;4.43;;;2.07;;
70547;SDS011;58099;43.406;3.698;2023-06-22T14:27:38;3.50;;;1.75;;
70547;SDS011;58099;43.406;3.698;2023-06-22T14:30:03;3.50;;;1.73;;
70547;SDS011;58099;43.406;3.698;2023-06-22T14:32:29;4.30;;;2.25;;
70547;SDS011;58099;43.406;3.698;2023-06-22T14:34:55;4.63;;;2.10;;
70547;SDS011;58099;43.406;3.698;2023-06-22T14:37:21;4.15;;;2.10;;